Rechercher aéroport 
image banner adimage banner adimage banner ad
image banner ad

KMCC - Mc Clellan Airfield

Situé à Sacramento, United States

ICAO - MCC, IATA - MCC

Données fournies par Airmate  

Information générale

Coordonnées: N38°40'4" W121°24'2"
Élévation : 77 feet MSL.
Variation magnétique : 17° East
Voir autres Aéroports à California

Données opérationnelles

Special qualification required
Heure actuelle UTC:
Heure actuelle locale:
Météo
METAR: KMCC 251315Z AUTO 15009KT 10SM CLR 18/11 A2989 RMK AO2
TAF: KMCC 251120Z 2512/2612 16009KT P6SM SCT200 FM260100 19012KT P6SM FEW150 BKN250
Voir NOTAMs / SUP AIP / TFR affectant cet aéroport [VIEW]
Fréquences de communication: [VIEW]

Pistes:

Identifiant RWYQFULongueur (ft)Largeur (ft)SurfaceLDA (ft)
16180°10599150CONC
3410599150CONC

Coordonnées de l'aéroport

Adresse: Sacramento United States

Autres services d'aviation

Écoles de pilotage

Flying Panthers Flight School, Inc

Flying Panthers Flight School, Inc

Vue satellite de KMCC